地図

経路データ

SID SEASON NUMBER BASIN SUBBASIN NAME ISO_TIME NATURE LAT LON WMO_WIND WMO_PRES WMO_AGENCY TRACK_TYPE DIST2LAND LANDFALL IFLAG USA_AGENCY USA_ATCF_ID USA_LAT USA_LON USA_RECORD USA_STATUS USA_WIND USA_PRES USA_SSHS USA_R34_NE USA_R34_SE USA_R34_SW USA_R34_NW USA_R50_NE USA_R50_SE USA_R50_SW USA_R50_NW USA_R64_NE USA_R64_SE USA_R64_SW USA_R64_NW USA_POCI USA_ROCI USA_RMW USA_EYE TOKYO_LAT TOKYO_LON TOKYO_GRADE TOKYO_WIND TOKYO_PRES TOKYO_R50_DIR TOKYO_R50_LONG TOKYO_R50_SHORT TOKYO_R30_DIR TOKYO_R30_LONG TOKYO_R30_SHORT TOKYO_LAND CMA_LAT CMA_LON CMA_CAT CMA_WIND CMA_PRES HKO_LAT HKO_LON HKO_CAT HKO_WIND HKO_PRES NEWDELHI_LAT NEWDELHI_LON NEWDELHI_GRADE NEWDELHI_WIND NEWDELHI_PRES NEWDELHI_CI NEWDELHI_DP NEWDELHI_POCI REUNION_LAT REUNION_LON REUNION_TYPE REUNION_WIND REUNION_PRES REUNION_TNUM REUNION_CI REUNION_RMW REUNION_R34_NE REUNION_R34_SE REUNION_R34_SW REUNION_R34_NW REUNION_R50_NE REUNION_R50_SE REUNION_R50_SW REUNION_R50_NW REUNION_R64_NE REUNION_R64_SE REUNION_R64_SW REUNION_R64_NW BOM_LAT BOM_LON BOM_TYPE BOM_WIND BOM_PRES BOM_TNUM BOM_CI BOM_RMW BOM_R34_NE BOM_R34_SE BOM_R34_SW BOM_R34_NW BOM_R50_NE BOM_R50_SE BOM_R50_SW BOM_R50_NW BOM_R64_NE BOM_R64_SE BOM_R64_SW BOM_R64_NW BOM_ROCI BOM_POCI BOM_EYE BOM_POS_METHOD BOM_PRES_METHOD NADI_LAT NADI_LON NADI_CAT NADI_WIND NADI_PRES WELLINGTON_LAT WELLINGTON_LON WELLINGTON_WIND WELLINGTON_PRES DS824_LAT DS824_LON DS824_STAGE DS824_WIND DS824_PRES TD9636_LAT TD9636_LON TD9636_STAGE TD9636_WIND TD9636_PRES TD9635_LAT TD9635_LON TD9635_WIND TD9635_PRES TD9635_ROCI NEUMANN_LAT NEUMANN_LON NEUMANN_CLASS NEUMANN_WIND NEUMANN_PRES MLC_LAT MLC_LON MLC_CLASS MLC_WIND MLC_PRES USA_GUST BOM_GUST BOM_GUST_PER REUNION_GUST REUNION_GUST_PER USA_SEAHGT USA_SEARAD_NE USA_SEARAD_SE USA_SEARAD_SW USA_SEARAD_NW STORM_SPEED STORM_DIR
1981127N18276 1981 35 NA CS ARLENE 1981-05-06 18:00:00 TS 18.4000 -83.6000 30 1006 hurdat_atl main 300 300 O_____________ hurdat_atl AL031981 18.4000 -83.6000 TD 30 1006 -1 8 92
1981127N18276 1981 35 NA CS ARLENE 1981-05-06 21:00:00 TS 18.3852 -83.1575 main 313 313 P_____________ AL031981 18.3852 -83.1575 TD 30 1006 -1 9 90
1981127N18276 1981 35 NA CS ARLENE 1981-05-07 00:00:00 TS 18.4000 -82.7000 30 1006 hurdat_atl main 335 328 O_____________ hurdat_atl AL031981 18.4000 -82.7000 TD 30 1006 -1 9 85
1981127N18276 1981 35 NA CS ARLENE 1981-05-07 03:00:00 TS 18.4699 -82.2149 main 330 326 P_____________ AL031981 18.4699 -82.2149 TD 30 1005 -1 10 78
1981127N18276 1981 35 NA CS ARLENE 1981-05-07 06:00:00 TS 18.6000 -81.7000 30 1005 hurdat_atl main 333 300 O_____________ hurdat_atl AL031981 18.6000 -81.7000 TD 30 1005 -1 11 74
1981127N18276 1981 35 NA CS ARLENE 1981-05-07 09:00:00 TS 18.7700 -81.1424 main 292 248 P_____________ AL031981 18.7700 -81.1424 TD 32 1004 -1 11 69
1981127N18276 1981 35 NA CS ARLENE 1981-05-07 12:00:00 TS 19.0000 -80.6000 35 1003 hurdat_atl main 248 219 O_____________ hurdat_atl AL031981 19.0000 -80.6000 TS 35 1003 0 11 62
1981127N18276 1981 35 NA CS ARLENE 1981-05-07 15:00:00 TS 19.2772 -80.1423 main 214 199 P_____________ AL031981 19.2772 -80.1423 TS 37 1001 0 10 55
1981127N18276 1981 35 NA CS ARLENE 1981-05-07 18:00:00 TS 19.6000 -79.7000 40 1000 hurdat_atl main 199 148 O_____________ hurdat_atl AL031981 19.6000 -79.7000 TS 40 1000 0 11 53
1981127N18276 1981 35 NA CS ARLENE 1981-05-07 21:00:00 TS 19.9347 -79.2296 main 143 78 P_____________ AL031981 19.9347 -79.2296 TS 42 999 0 12 53
1981127N18276 1981 35 NA CS ARLENE 1981-05-08 00:00:00 TS 20.3000 -78.7000 45 999 hurdat_atl main 78 15 O_____________ hurdat_atl AL031981 20.3000 -78.7000 TS 45 999 0 13 57
1981127N18276 1981 35 NA CS ARLENE 1981-05-08 03:00:00 TS 20.6552 -78.0497 main 0 0 P_____________ AL031981 20.6552 -78.0497 TS 37 1001 0 15 57
1981127N18276 1981 35 NA NA ARLENE 1981-05-08 06:00:00 TS 21.1000 -77.4000 30 1003 hurdat_atl main 0 0 O_____________ hurdat_atl AL031981 21.1000 -77.4000 TD 30 1003 -1 15 43
1981127N18276 1981 35 NA NA ARLENE 1981-05-08 09:00:00 TS 21.7638 -76.9446 main 23 23 P_____________ AL031981 21.7638 -76.9446 TD 30 1004 -1 16 36
1981127N18276 1981 35 NA NA ARLENE 1981-05-08 12:00:00 TS 22.4000 -76.4000 30 1006 hurdat_atl main 106 106 O_____________ hurdat_atl AL031981 22.4000 -76.4000 TD 30 1006 -1 17 53
1981127N18276 1981 35 NA NA ARLENE 1981-05-08 15:00:00 TS 22.7682 -75.5022 main 192 192 P_____________ AL031981 22.7682 -75.5022 TD 40 1005 0 19 71
1981127N18276 1981 35 NA NA ARLENE 1981-05-08 18:00:00 TS 23.0000 -74.5000 50 1004 hurdat_atl main 227 221 O_____________ hurdat_atl AL031981 23.0000 -74.5000 TS 50 1004 0 18 76
1981127N18276 1981 35 NA NA ARLENE 1981-05-08 21:00:00 TS 23.1992 -73.6416 main 227 225 P_____________ AL031981 23.1992 -73.6416 TS 40 1005 0 16 76
1981127N18276 1981 35 NA NA ARLENE 1981-05-09 00:00:00 TS 23.4000 -72.8000 30 1006 hurdat_atl main 246 246 O_____________ hurdat_atl AL031981 23.4000 -72.8000 TD 30 1006 -1 17 73
1981127N18276 1981 35 NA NA ARLENE 1981-05-09 03:00:00 TS 23.6763 -71.9164 main 301 301 P_____________ AL031981 23.6763 -71.9164 TD 27 1008 -1 18 70
1981127N18276 1981 35 NA NA ARLENE 1981-05-09 06:00:00 TS 24.0000 -71.0000 25 1010 hurdat_atl main 374 O_____________ hurdat_atl AL031981 24.0000 -71.0000 TD 25 1010 -1 18 69

IBTrACS Databaseについて

本データベースは、米国NOAAが公開する1842年以降の世界の熱帯低気圧のベストトラックデータアーカイブInternational Best Track Archive for Climate Stewardship (IBTrACS)を、ウェブで閲覧しやすい形式に変換したものです。

最終更新日:2021-10-08